Terminal Aerodrome Forecast
Issued by NWS

Home | Current Version | Previous Version | Text Only | Print | Product List | Glossary On
Versions: 1 2 3 4 5 6 7 8 9 10 11 12 13 14 15 16 17 18 19 20 21 22 23 24 25 26 27 28 29 30 31 32
000
FTUS45 KTWC 011129
TAFOLS
TAF
KOLS 011129Z 0112/0212 VRB03KT P6SM SCT100 OVC200
     FM011800 17006KT P6SM FEW070 BKN200
     FM012100 20008KT P6SM VCSH SCT070 BKN110
     FM020000 24005KT P6SM SCT070 BKN110
     FM020400 VRB03KT P6SM SCT110 BKN250=

USA.gov is the U.S. government's official web portal to all federal, state and local government web resources and services.